Terminal Aerodrome Forecast
Issued by NWS Boston, MA

Home | Current Version | Previous Version | Text Only | Print | Product List | Glossary Off
Versions: 1 2 3 4 5 6 7 8 9 10 11 12 13 14 15 16 17 18 19 20 21 22 23 24 25 26 27
000 FTUS41 KBOX 212320 TAFORH TAF KORH 212320Z 2200/2224 28008KT P6SM SKC FM221300 24009KT P6SM FEW120 FM221500 24011G29KT P6SM SCT140 FM222100 23012G32KT P6SM BKN090=

USA.gov is the U.S. government's official web portal to all federal, state and local government web resources and services.